createdAt,value
2023-05-24T00:00:45.765Z,24.03
2023-05-24T00:01:45.791Z,24.03
2023-05-24T00:02:45.870Z,24.03
2023-05-24T00:03:46.001Z,24.02
2023-05-24T00:04:45.861Z,24.02
2023-05-24T00:05:45.856Z,24.02
2023-05-24T00:06:45.849Z,24.03
2023-05-24T00:07:45.872Z,24.02
2023-05-24T00:08:45.872Z,24.02
2023-05-24T00:09:45.887Z,24.02
2023-05-24T00:10:45.904Z,24.01
2023-05-24T00:11:45.906Z,24.02
2023-05-24T00:12:45.932Z,24.01
2023-05-24T00:13:45.923Z,24.02
2023-05-24T00:14:45.936Z,24.02
2023-05-24T00:15:45.964Z,24.01
2023-05-24T00:16:45.976Z,24.01
2023-05-24T00:17:46.010Z,24.01
2023-05-24T00:18:45.978Z,24.01
2023-05-24T00:19:45.988Z,24.01
2023-05-24T00:20:46.411Z,24.00
2023-05-24T00:21:45.995Z,24.01
2023-05-24T00:22:46.030Z,24.01
2023-05-24T00:23:46.011Z,24.00
2023-05-24T00:24:46.008Z,24.00
2023-05-24T00:25:46.025Z,24.00
2023-05-24T00:26:46.028Z,24.00
2023-05-24T00:27:46.047Z,24.01
2023-05-24T00:28:46.051Z,24.00
2023-05-24T00:29:46.064Z,24.00
2023-05-24T00:30:46.089Z,24.01
2023-05-24T00:31:46.121Z,24.00
2023-05-24T00:32:46.111Z,24.01
2023-05-24T00:33:46.086Z,24.00
2023-05-24T00:34:46.078Z,24.00
2023-05-24T00:35:46.083Z,23.99
2023-05-24T00:36:46.092Z,23.99
2023-05-24T00:37:46.106Z,24.00
2023-05-24T00:38:46.172Z,24.00
2023-05-24T00:39:46.120Z,23.99
2023-05-24T00:40:46.139Z,23.99
2023-05-24T00:41:46.144Z,23.99
2023-05-24T00:42:46.170Z,23.99
2023-05-24T00:43:46.206Z,23.98
2023-05-24T00:44:46.227Z,23.98
2023-05-24T00:45:46.289Z,23.99
2023-05-24T00:46:46.260Z,23.98
2023-05-24T00:47:46.351Z,23.98
2023-05-24T00:48:46.412Z,23.98
2023-05-24T00:49:46.400Z,23.98
2023-05-24T00:50:46.409Z,23.98
2023-05-24T00:51:46.431Z,23.98
2023-05-24T00:52:46.455Z,23.98
2023-05-24T00:53:46.493Z,23.99
2023-05-24T00:54:46.525Z,23.98
2023-05-24T00:55:46.578Z,23.98
2023-05-24T00:56:46.588Z,23.98
2023-05-24T00:57:46.605Z,23.98
2023-05-24T00:58:46.665Z,23.98
2023-05-24T00:59:46.635Z,23.96
2023-05-24T01:00:46.646Z,23.97
2023-05-24T01:01:46.695Z,23.96
2023-05-24T01:02:46.797Z,23.97
2023-05-24T01:03:46.809Z,23.97
2023-05-24T01:04:46.660Z,23.97
2023-05-24T01:05:46.681Z,23.97
2023-05-24T01:06:46.674Z,23.97
2023-05-24T01:07:46.686Z,23.96
2023-05-24T01:08:46.687Z,23.97
2023-05-24T01:09:46.703Z,23.96
2023-05-24T01:10:46.723Z,23.96
2023-05-24T01:11:46.732Z,23.96
2023-05-24T01:12:46.749Z,23.96
2023-05-24T01:13:46.744Z,23.96
2023-05-24T01:14:46.754Z,23.96
2023-05-24T01:15:46.789Z,23.96
2023-05-24T01:16:46.762Z,23.96
2023-05-24T01:17:46.814Z,23.96
2023-05-24T01:18:46.791Z,23.95
2023-05-24T01:19:46.797Z,23.95
2023-05-24T01:20:47.045Z,23.95
2023-05-24T01:21:46.821Z,23.95
2023-05-24T01:22:46.848Z,23.95
2023-05-24T01:23:46.876Z,23.95
2023-05-24T01:24:46.881Z,23.95
2023-05-24T01:25:46.891Z,23.95
2023-05-24T01:26:46.944Z,23.94
2023-05-24T01:27:46.969Z,23.94
2023-05-24T01:28:47.003Z,23.94
2023-05-24T01:29:47.033Z,23.94
2023-05-24T01:30:47.045Z,23.94
2023-05-24T01:31:47.124Z,23.94
2023-05-24T01:32:47.112Z,23.94
2023-05-24T01:33:47.101Z,23.94
2023-05-24T01:34:47.089Z,23.94
2023-05-24T01:35:47.112Z,23.94
2023-05-24T01:36:47.109Z,23.94
2023-05-24T01:37:47.120Z,23.94
2023-05-24T01:38:47.199Z,23.93
2023-05-24T01:39:47.133Z,23.93
2023-05-24T01:40:47.172Z,23.93
2023-05-24T01:41:47.158Z,23.93
2023-05-24T01:42:47.209Z,23.93
2023-05-24T01:43:47.177Z,23.93
2023-05-24T01:44:47.196Z,23.93
2023-05-24T01:45:47.199Z,23.92
2023-05-24T01:46:47.242Z,23.92
2023-05-24T01:47:47.316Z,23.93
2023-05-24T01:48:47.255Z,23.92
2023-05-24T01:49:47.245Z,23.92
2023-05-24T01:50:47.261Z,23.92
2023-05-24T01:51:47.287Z,23.93
2023-05-24T01:52:47.286Z,23.92
2023-05-24T01:53:47.305Z,23.92
2023-05-24T01:54:47.316Z,23.92
2023-05-24T01:55:47.326Z,23.91
2023-05-24T01:56:47.333Z,23.91
2023-05-24T01:57:47.345Z,23.92
2023-05-24T01:58:47.356Z,23.92
2023-05-24T01:59:47.372Z,23.91
2023-05-24T02:00:47.431Z,23.91
2023-05-24T02:01:47.407Z,23.91
2023-05-24T02:02:47.459Z,23.91
2023-05-24T02:03:47.415Z,23.90
2023-05-24T02:04:47.425Z,23.90
2023-05-24T02:05:47.448Z,23.91
2023-05-24T02:06:47.482Z,23.90
2023-05-24T02:07:47.511Z,23.90
2023-05-24T02:08:47.587Z,23.90
2023-05-24T02:09:47.527Z,23.90
2023-05-24T02:10:47.566Z,23.90
2023-05-24T02:11:47.600Z,23.90
2023-05-24T02:12:47.694Z,23.89
2023-05-24T02:13:47.683Z,23.89
2023-05-24T02:14:47.744Z,23.88
2023-05-24T02:15:47.808Z,23.89
2023-05-24T02:16:47.892Z,23.88
2023-05-24T02:17:47.930Z,23.89
2023-05-24T02:18:47.936Z,23.89
2023-05-24T02:19:47.966Z,23.89
2023-05-24T02:20:48.002Z,23.88
2023-05-24T02:21:48.007Z,23.88
2023-05-24T02:22:48.023Z,23.87
2023-05-24T02:23:48.030Z,23.88
2023-05-24T02:24:48.044Z,23.88
2023-05-24T02:25:48.072Z,23.88
2023-05-24T02:26:48.084Z,23.88
2023-05-24T02:27:48.105Z,23.88
2023-05-24T02:28:48.087Z,23.87
2023-05-24T02:29:48.093Z,23.87
2023-05-24T02:30:48.144Z,23.87
2023-05-24T02:31:48.132Z,23.87
2023-05-24T02:32:48.168Z,23.87
2023-05-24T02:33:48.157Z,23.87
2023-05-24T02:34:48.166Z,23.87
2023-05-24T02:35:48.201Z,23.87
2023-05-24T02:36:48.207Z,23.86
2023-05-24T02:37:48.223Z,23.86
2023-05-24T02:38:48.224Z,23.87
2023-05-24T02:39:48.242Z,23.86
2023-05-24T02:40:48.234Z,23.87
2023-05-24T02:41:48.248Z,23.85
2023-05-24T02:42:48.261Z,23.86
2023-05-24T02:43:48.274Z,23.86
2023-05-24T02:44:48.294Z,23.85
2023-05-24T02:45:48.337Z,23.85
2023-05-24T02:46:48.371Z,23.85
2023-05-24T02:47:48.379Z,23.85
2023-05-24T02:48:48.358Z,23.86
2023-05-24T02:49:48.357Z,23.85
2023-05-24T02:50:48.431Z,23.85
2023-05-24T02:51:48.422Z,23.82
2023-05-24T02:52:48.437Z,23.81
2023-05-24T02:53:48.416Z,23.79
2023-05-24T02:54:48.566Z,23.76
2023-05-24T02:55:48.550Z,23.72
2023-05-24T02:56:48.589Z,23.70
2023-05-24T02:57:48.611Z,23.68
2023-05-24T02:58:48.589Z,23.66
2023-05-24T02:59:48.662Z,23.65
2023-05-24T03:00:48.776Z,23.64
2023-05-24T03:01:48.692Z,23.64
2023-05-24T03:02:48.761Z,23.62
2023-05-24T03:03:48.891Z,23.60
2023-05-24T03:04:48.793Z,23.57
2023-05-24T03:05:48.828Z,23.56
2023-05-24T03:06:48.885Z,23.55
2023-05-24T03:07:48.923Z,23.54
2023-05-24T03:08:48.983Z,23.53
2023-05-24T03:09:49.020Z,23.52
2023-05-24T03:10:49.080Z,23.48
2023-05-24T03:11:49.119Z,23.47
2023-05-24T03:12:49.183Z,23.46
2023-05-24T03:13:49.244Z,23.47
2023-05-24T03:14:49.302Z,23.46
2023-05-24T03:15:49.381Z,23.45
2023-05-24T03:16:49.394Z,23.43
2023-05-24T03:17:49.479Z,23.42
2023-05-24T03:18:49.513Z,23.42
2023-05-24T03:19:49.594Z,23.41
2023-05-24T03:20:49.635Z,23.40
2023-05-24T03:21:49.699Z,23.40
2023-05-24T03:22:49.748Z,23.38
2023-05-24T03:23:49.838Z,23.37
2023-05-24T03:24:49.876Z,23.36
2023-05-24T03:25:49.964Z,23.36
2023-05-24T03:26:50.022Z,23.35
2023-05-24T03:27:50.073Z,23.34
2023-05-24T03:28:50.135Z,23.33
2023-05-24T03:29:50.186Z,23.33
2023-05-24T03:30:50.264Z,23.31
2023-05-24T03:31:50.399Z,23.31
2023-05-24T03:32:50.441Z,23.30
2023-05-24T03:33:50.474Z,23.29
2023-05-24T03:34:50.531Z,23.29
2023-05-24T03:35:50.600Z,23.28
2023-05-24T03:36:50.670Z,23.26
2023-05-24T03:37:50.741Z,23.24
2023-05-24T03:38:50.819Z,23.23
2023-05-24T03:39:50.885Z,23.22
2023-05-24T03:40:50.965Z,23.21
2023-05-24T03:41:51.085Z,23.23
2023-05-24T03:42:51.102Z,23.20
2023-05-24T03:43:51.178Z,23.19
2023-05-24T03:44:51.246Z,23.18
2023-05-24T03:45:51.374Z,23.19
2023-05-24T03:46:51.414Z,23.19
2023-05-24T03:47:51.493Z,23.18
2023-05-24T03:48:51.555Z,23.17
2023-05-24T03:49:51.615Z,23.17
2023-05-24T03:50:51.731Z,23.17
2023-05-24T03:51:51.782Z,23.16
2023-05-24T03:52:51.867Z,23.16
2023-05-24T03:53:51.946Z,23.15
2023-05-24T03:54:52.026Z,23.16
2023-05-24T03:55:52.134Z,23.15
2023-05-24T03:56:52.200Z,23.16
2023-05-24T03:57:52.299Z,23.16
2023-05-24T03:58:52.396Z,23.15
2023-05-24T03:59:52.452Z,23.15
2023-05-24T04:00:52.536Z,23.14
2023-05-24T04:01:52.683Z,23.13
2023-05-24T04:02:52.917Z,23.12
2023-05-24T04:03:52.913Z,23.11
2023-05-24T04:04:52.879Z,23.08
2023-05-24T04:05:52.969Z,23.07
2023-05-24T04:06:53.050Z,23.07
2023-05-24T04:07:53.153Z,23.06
2023-05-24T04:08:53.265Z,23.04
2023-05-24T04:09:53.317Z,23.04
2023-05-24T04:10:53.423Z,23.04
2023-05-24T04:11:53.489Z,23.02
2023-05-24T04:12:53.539Z,23.02
2023-05-24T04:13:53.532Z,23.03
2023-05-24T04:14:53.557Z,23.02
2023-05-24T04:15:53.582Z,23.00
2023-05-24T04:16:53.654Z,23.00
2023-05-24T04:17:53.684Z,22.99
2023-05-24T04:18:53.681Z,22.99
2023-05-24T04:19:53.677Z,22.98
2023-05-24T04:20:53.753Z,22.97
2023-05-24T04:21:53.804Z,22.95
2023-05-24T04:22:53.904Z,22.94
2023-05-24T04:23:53.990Z,22.94
2023-05-24T04:24:54.166Z,22.94
2023-05-24T04:25:54.184Z,22.94
2023-05-24T04:26:54.252Z,22.92
2023-05-24T04:27:54.408Z,22.91
2023-05-24T04:28:54.437Z,22.91
2023-05-24T04:29:54.551Z,22.89
2023-05-24T04:30:54.669Z,22.88
2023-05-24T04:31:54.647Z,22.89
2023-05-24T04:32:54.733Z,22.88
2023-05-24T04:33:54.786Z,22.88
2023-05-24T04:34:54.851Z,22.86
2023-05-24T04:35:54.904Z,22.86
2023-05-24T04:36:54.923Z,22.86
2023-05-24T04:37:54.981Z,22.85
2023-05-24T04:38:55.024Z,22.85
2023-05-24T04:39:55.044Z,22.84
2023-05-24T04:40:55.074Z,22.85
2023-05-24T04:41:55.093Z,22.85
2023-05-24T04:42:55.115Z,22.83
2023-05-24T04:43:55.121Z,22.81
2023-05-24T04:44:55.144Z,22.80
2023-05-24T04:45:55.188Z,22.79
2023-05-24T04:46:55.297Z,22.82
2023-05-24T04:47:55.276Z,22.83
2023-05-24T04:48:55.243Z,22.86
2023-05-24T04:49:55.272Z,22.88
2023-05-24T04:50:55.371Z,22.92
2023-05-24T04:51:55.463Z,22.94
2023-05-24T04:52:55.559Z,22.97
2023-05-24T04:53:55.652Z,22.98
2023-05-24T04:54:55.790Z,23.00
2023-05-24T04:55:55.826Z,23.01
2023-05-24T04:56:55.905Z,23.03
2023-05-24T04:57:56.002Z,23.04
2023-05-24T04:58:56.079Z,23.07
2023-05-24T04:59:56.153Z,23.08
2023-05-24T05:00:56.177Z,23.09
2023-05-24T05:01:56.218Z,23.11
2023-05-24T05:02:56.369Z,23.12
2023-05-24T05:03:56.253Z,23.13
2023-05-24T05:04:56.260Z,23.14
2023-05-24T05:05:56.272Z,23.14
2023-05-24T05:06:56.297Z,23.15
2023-05-24T05:07:56.282Z,23.16
2023-05-24T05:08:56.307Z,23.16
2023-05-24T05:09:56.353Z,23.17
2023-05-24T05:10:56.425Z,23.18
2023-05-24T05:11:56.489Z,23.19
2023-05-24T05:12:56.552Z,23.18
2023-05-24T05:13:56.621Z,23.19
2023-05-24T05:14:56.688Z,23.19
2023-05-24T05:15:56.779Z,23.19
2023-05-24T05:16:57.003Z,23.21
2023-05-24T05:17:56.932Z,23.22
2023-05-24T05:18:56.959Z,23.22
2023-05-24T05:19:57.096Z,23.22
2023-05-24T05:20:57.082Z,23.23
2023-05-24T05:21:57.147Z,23.23
2023-05-24T05:22:57.224Z,23.23
2023-05-24T05:23:57.269Z,23.24
2023-05-24T05:24:57.359Z,23.23
2023-05-24T05:25:57.411Z,23.24
2023-05-24T05:26:57.496Z,23.24
2023-05-24T05:27:57.549Z,23.24
2023-05-24T05:28:57.635Z,23.24
2023-05-24T05:29:57.644Z,23.24
2023-05-24T05:30:57.691Z,23.24
2023-05-24T05:31:57.719Z,23.25
2023-05-24T05:32:58.014Z,23.28
2023-05-24T05:33:57.754Z,23.30
2023-05-24T05:34:57.749Z,23.32
2023-05-24T05:35:57.812Z,23.35
2023-05-24T05:36:57.797Z,23.38
2023-05-24T05:37:57.829Z,23.40
2023-05-24T05:38:57.855Z,23.41
2023-05-24T05:39:57.885Z,23.42
2023-05-24T05:40:58.004Z,23.44
2023-05-24T05:41:57.995Z,23.45
2023-05-24T05:42:58.031Z,23.47
2023-05-24T05:43:58.051Z,23.47
2023-05-24T05:44:58.148Z,23.48
2023-05-24T05:45:58.226Z,23.50
2023-05-24T05:46:58.270Z,23.53
2023-05-24T05:47:58.325Z,23.55
2023-05-24T05:48:58.377Z,23.57
2023-05-24T05:49:58.467Z,23.59
2023-05-24T05:50:59.389Z,23.59
2023-05-24T05:51:58.577Z,23.61
2023-05-24T05:52:58.628Z,23.64
2023-05-24T05:53:58.666Z,23.66
2023-05-24T05:54:58.702Z,23.68
2023-05-24T05:55:58.737Z,23.69
2023-05-24T05:57:00.721Z,23.71
2023-05-24T05:57:58.998Z,23.72
2023-05-24T05:58:59.096Z,23.74
2023-05-24T05:59:59.110Z,23.75
2023-05-24T06:00:59.136Z,23.76
2023-05-24T06:01:59.187Z,23.79
2023-05-24T06:02:59.371Z,23.79
2023-05-24T06:03:59.321Z,23.81
2023-05-24T06:04:59.356Z,23.81
2023-05-24T06:05:59.337Z,23.81
2023-05-24T06:06:59.349Z,23.83
2023-05-24T06:07:59.390Z,23.84
2023-05-24T06:08:59.418Z,23.86
2023-05-24T06:09:59.470Z,23.86
2023-05-24T06:10:59.482Z,23.88
2023-05-24T06:11:59.525Z,23.89
2023-05-24T06:12:59.523Z,23.90
2023-05-24T06:13:59.536Z,23.91
2023-05-24T06:14:59.608Z,23.93
2023-05-24T06:15:59.677Z,23.94
2023-05-24T06:17:00.246Z,23.95
2023-05-24T06:17:59.644Z,23.97
2023-05-24T06:19:05.866Z,23.98
2023-05-24T06:20:00.773Z,23.99
2023-05-24T06:20:59.655Z,24.00
2023-05-24T06:21:59.657Z,24.03
2023-05-24T06:22:59.703Z,24.05
2023-05-24T06:23:59.716Z,24.05
2023-05-24T06:24:59.710Z,24.09
2023-05-24T06:25:59.741Z,24.10
2023-05-24T06:26:59.748Z,24.11
2023-05-24T06:27:59.759Z,24.13
2023-05-24T06:28:59.763Z,24.14
2023-05-24T06:29:59.837Z,24.14
2023-05-24T06:30:59.855Z,24.13
2023-05-24T06:31:59.904Z,24.00
2023-05-24T06:32:59.869Z,23.42
2023-05-24T06:34:03.895Z,22.99
2023-05-24T06:34:59.905Z,22.83
2023-05-24T06:35:59.968Z,22.75
2023-05-24T06:36:59.956Z,22.71
2023-05-24T06:38:00.019Z,22.70
2023-05-24T06:39:00.022Z,22.71
2023-05-24T06:40:00.075Z,22.69
2023-05-24T06:41:00.082Z,22.68
2023-05-24T06:42:00.150Z,22.68
2023-05-24T06:43:00.141Z,22.67
2023-05-24T06:44:00.225Z,22.72
2023-05-24T06:45:00.262Z,22.79
2023-05-24T06:46:00.250Z,22.85
2023-05-24T06:47:00.333Z,22.93
2023-05-24T06:48:00.467Z,22.99
2023-05-24T06:49:00.410Z,23.06
2023-05-24T06:50:00.395Z,23.14
2023-05-24T06:51:00.431Z,23.18
2023-05-24T06:52:00.422Z,23.22
2023-05-24T06:53:00.514Z,23.25
2023-05-24T06:54:00.531Z,23.28
2023-05-24T06:55:00.511Z,23.31
2023-05-24T06:56:00.590Z,23.35
2023-05-24T06:57:00.595Z,23.40
2023-05-24T06:58:00.677Z,23.44
2023-05-24T06:59:00.706Z,23.48
2023-05-24T07:00:00.769Z,23.51
2023-05-24T07:01:00.868Z,23.54
2023-05-24T07:02:03.474Z,23.57
2023-05-24T07:03:00.971Z,23.59
2023-05-24T07:04:01.104Z,23.61
2023-05-24T07:05:01.088Z,23.63
2023-05-24T07:06:01.055Z,23.64
2023-05-24T07:07:01.078Z,23.67
2023-05-24T07:08:01.053Z,23.68
2023-05-24T07:09:01.139Z,23.70
2023-05-24T07:10:01.160Z,23.70
2023-05-24T07:11:01.111Z,23.73
2023-05-24T07:12:01.204Z,23.73
2023-05-24T07:13:01.145Z,23.74
2023-05-24T07:14:01.245Z,23.74
2023-05-24T07:15:01.173Z,23.76
2023-05-24T07:16:01.271Z,23.78
2023-05-24T07:17:01.219Z,23.79
2023-05-24T07:18:01.275Z,23.81
2023-05-24T07:19:03.969Z,23.82
2023-05-24T07:20:01.279Z,23.83
2023-05-24T07:21:01.452Z,23.85
2023-05-24T07:22:01.340Z,23.86
2023-05-24T07:23:01.329Z,23.88
2023-05-24T07:24:01.376Z,23.88
2023-05-24T07:25:01.388Z,23.90
2023-05-24T07:26:01.621Z,23.91
2023-05-24T07:27:01.430Z,23.92
2023-05-24T07:28:01.435Z,23.94
2023-05-24T07:29:01.465Z,23.96
2023-05-24T07:30:01.481Z,23.98
2023-05-24T07:31:01.527Z,24.00
2023-05-24T07:32:01.614Z,24.02
2023-05-24T07:33:01.865Z,24.04
2023-05-24T07:34:01.550Z,24.06
2023-05-24T07:35:01.635Z,24.08
2023-05-24T07:36:01.611Z,24.09
2023-05-24T07:37:01.731Z,24.12
2023-05-24T07:38:01.688Z,24.12
2023-05-24T07:39:01.681Z,24.12
2023-05-24T07:40:01.723Z,24.12
2023-05-24T07:41:01.701Z,24.14
2023-05-24T07:42:01.784Z,24.15
2023-05-24T07:43:03.776Z,24.12
2023-05-24T07:44:01.734Z,24.12
2023-05-24T07:45:01.821Z,24.11
2023-05-24T07:46:01.830Z,24.11
2023-05-24T07:47:01.765Z,24.09
2023-05-24T07:48:02.065Z,24.02
2023-05-24T07:49:01.829Z,23.89
2023-05-24T07:50:01.854Z,23.77
2023-05-24T07:51:01.909Z,23.66
2023-05-24T07:52:01.968Z,23.60
2023-05-24T07:53:02.027Z,23.53
2023-05-24T07:54:02.101Z,23.49
2023-05-24T07:55:02.142Z,23.44
2023-05-24T07:56:02.245Z,23.38
2023-05-24T07:57:02.304Z,23.33
2023-05-24T07:58:02.352Z,23.28
2023-05-24T07:59:02.404Z,23.19
2023-05-24T08:00:02.507Z,23.16
2023-05-24T08:01:02.588Z,23.11
2023-05-24T08:02:02.651Z,23.02
2023-05-24T08:03:02.744Z,22.96
2023-05-24T08:04:02.912Z,22.90
2023-05-24T08:05:02.910Z,22.88
2023-05-24T08:06:02.983Z,22.85
2023-05-24T08:07:03.080Z,22.82
2023-05-24T08:08:03.153Z,22.79
2023-05-24T08:09:03.205Z,22.76
2023-05-24T08:10:03.290Z,22.73
2023-05-24T08:11:03.424Z,22.71
2023-05-24T08:12:03.438Z,22.70
2023-05-24T08:13:03.476Z,22.68
2023-05-24T08:14:03.599Z,22.66
2023-05-24T08:15:03.587Z,22.65
2023-05-24T08:16:03.704Z,22.62
2023-05-24T08:17:03.723Z,22.60
2023-05-24T08:18:03.787Z,22.60
2023-05-24T08:19:03.775Z,22.57
2023-05-24T08:20:03.846Z,22.50
2023-05-24T08:21:03.792Z,22.45
2023-05-24T08:22:03.811Z,22.41
2023-05-24T08:23:03.854Z,22.38
2023-05-24T08:24:06.058Z,22.43
2023-05-24T08:25:03.868Z,22.42
2023-05-24T08:26:03.904Z,22.46
2023-05-24T08:27:03.946Z,22.42
2023-05-24T08:28:04.032Z,22.37
2023-05-24T08:29:03.993Z,22.34
2023-05-24T08:30:04.019Z,22.29
2023-05-24T08:31:04.041Z,22.24
2023-05-24T08:32:04.050Z,22.22
2023-05-24T08:33:04.138Z,22.25
2023-05-24T08:34:04.095Z,22.30
2023-05-24T08:35:19.289Z,22.38
2023-05-24T08:36:05.164Z,22.47
2023-05-24T08:37:04.245Z,22.55
2023-05-24T08:38:04.188Z,22.63
2023-05-24T08:39:04.192Z,22.68
2023-05-24T08:40:04.235Z,22.74
2023-05-24T08:41:04.348Z,22.80
2023-05-24T08:42:09.687Z,22.86
2023-05-24T08:43:05.348Z,22.92
2023-05-24T08:44:04.358Z,22.98
2023-05-24T08:45:04.336Z,23.03
2023-05-24T08:46:04.411Z,23.09
2023-05-24T08:47:04.376Z,23.15
2023-05-24T08:48:04.463Z,23.20
2023-05-24T08:49:04.570Z,23.25
2023-05-24T08:50:04.441Z,23.28
2023-05-24T08:51:04.659Z,23.30
2023-05-24T08:52:04.541Z,23.34
2023-05-24T08:53:04.601Z,23.36
2023-05-24T08:54:04.572Z,23.37
2023-05-24T08:55:04.579Z,23.37
2023-05-24T08:56:04.578Z,23.38
2023-05-24T08:57:04.677Z,23.40
2023-05-24T08:58:04.627Z,23.40
2023-05-24T08:59:04.675Z,23.40
2023-05-24T09:00:04.713Z,23.40
2023-05-24T09:01:04.814Z,23.40
2023-05-24T09:02:04.804Z,23.39
2023-05-24T09:03:04.893Z,23.40
2023-05-24T09:04:04.838Z,23.41
2023-05-24T09:05:04.761Z,23.41
2023-05-24T09:06:04.802Z,23.44
2023-05-24T09:07:04.854Z,23.46
2023-05-24T09:08:04.828Z,23.47
2023-05-24T09:09:04.839Z,23.47
2023-05-24T09:10:04.880Z,23.48
2023-05-24T09:11:05.094Z,23.48
2023-05-24T09:12:05.027Z,23.47
2023-05-24T09:13:05.182Z,23.45
2023-05-24T09:14:05.145Z,23.44
2023-05-24T09:15:05.227Z,23.43
2023-05-24T09:16:05.340Z,23.45
2023-05-24T09:17:05.441Z,23.47
2023-05-24T09:18:05.565Z,23.49
2023-05-24T09:19:05.474Z,23.50
2023-05-24T09:20:05.549Z,23.51
2023-05-24T09:21:05.542Z,23.55
2023-05-24T09:22:05.566Z,23.56
2023-05-24T09:23:05.585Z,23.54
2023-05-24T09:24:05.580Z,23.55
2023-05-24T09:25:05.639Z,23.55
2023-05-24T09:26:05.625Z,23.54
2023-05-24T09:27:05.636Z,23.53
2023-05-24T09:28:05.644Z,23.53
2023-05-24T09:29:05.671Z,23.51
2023-05-24T09:30:05.760Z,23.51
2023-05-24T09:31:07.884Z,23.50
2023-05-24T09:32:06.085Z,23.47
2023-05-24T09:33:06.034Z,23.46
2023-05-24T09:34:06.062Z,23.47
2023-05-24T09:35:06.114Z,23.45
2023-05-24T09:36:06.240Z,23.46
2023-05-24T09:37:06.341Z,23.44
2023-05-24T09:38:06.307Z,23.46
2023-05-24T09:39:06.455Z,23.47
2023-05-24T09:40:06.475Z,23.48
2023-05-24T09:41:06.528Z,23.48
2023-05-24T09:42:06.509Z,23.48
2023-05-24T09:43:06.519Z,23.50
2023-05-24T09:44:06.518Z,23.51
2023-05-24T09:45:06.589Z,23.51
2023-05-24T09:46:06.560Z,23.50
2023-05-24T09:47:06.679Z,23.50
2023-05-24T09:48:06.650Z,23.50
2023-05-24T09:49:06.659Z,23.49
2023-05-24T09:50:06.746Z,23.48
2023-05-24T09:51:06.837Z,23.48
2023-05-24T09:52:06.765Z,23.46
2023-05-24T09:53:06.751Z,23.47
2023-05-24T09:54:06.801Z,23.47
2023-05-24T09:55:06.863Z,23.46
2023-05-24T09:56:06.937Z,23.47
2023-05-24T09:57:07.008Z,23.47
2023-05-24T09:58:07.095Z,23.46
2023-05-24T09:59:07.159Z,23.45
2023-05-24T10:00:07.310Z,23.44
2023-05-24T10:01:07.364Z,23.44
2023-05-24T10:02:07.384Z,23.42
2023-05-24T10:03:07.572Z,23.39
2023-05-24T10:04:09.864Z,23.36
2023-05-24T10:05:07.545Z,23.36
2023-05-24T10:06:07.630Z,23.34
2023-05-24T10:07:07.605Z,23.35
2023-05-24T10:08:07.592Z,23.35
2023-05-24T10:09:07.647Z,23.33
2023-05-24T10:10:07.838Z,23.33
2023-05-24T10:11:07.659Z,23.32
2023-05-24T10:12:07.699Z,23.31
2023-05-24T10:13:07.711Z,23.29
2023-05-24T10:14:07.740Z,23.30
2023-05-24T10:15:07.748Z,23.31
2023-05-24T10:16:07.787Z,23.31
2023-05-24T10:17:08.000Z,23.30
2023-05-24T10:18:09.148Z,23.31
2023-05-24T10:19:07.842Z,23.32
2023-05-24T10:20:07.965Z,23.31
2023-05-24T10:21:07.970Z,23.31
2023-05-24T10:22:07.934Z,23.31
2023-05-24T10:23:07.996Z,23.33
2023-05-24T10:24:09.088Z,23.33
2023-05-24T10:25:08.016Z,23.35
2023-05-24T10:26:08.054Z,23.35
2023-05-24T10:27:08.070Z,23.37
2023-05-24T10:28:08.066Z,23.38
2023-05-24T10:29:08.097Z,23.37
2023-05-24T10:30:10.052Z,23.38
2023-05-24T10:31:08.178Z,23.40
2023-05-24T10:32:08.165Z,23.41
2023-05-24T10:33:08.252Z,23.42
2023-05-24T10:34:08.833Z,23.44
2023-05-24T10:35:08.315Z,23.43
2023-05-24T10:36:09.551Z,23.45
2023-05-24T10:37:08.253Z,23.46
2023-05-24T10:38:08.495Z,23.46
2023-05-24T10:39:08.277Z,23.47
2023-05-24T10:40:08.316Z,23.47
2023-05-24T10:41:08.351Z,23.46
2023-05-24T10:42:09.896Z,23.46
2023-05-24T10:43:08.399Z,23.45
2023-05-24T10:44:09.678Z,23.45
2023-05-24T10:45:08.407Z,23.44
2023-05-24T10:46:08.489Z,23.43
2023-05-24T10:47:08.458Z,23.43
2023-05-24T10:48:08.573Z,23.43
2023-05-24T10:49:08.472Z,23.41
2023-05-24T10:50:08.508Z,23.40
2023-05-24T10:51:08.520Z,23.40
2023-05-24T10:52:08.602Z,23.38
2023-05-24T10:53:08.639Z,23.38
2023-05-24T10:54:09.294Z,23.37
2023-05-24T10:55:08.859Z,23.36
2023-05-24T10:56:08.856Z,23.34
2023-05-24T10:57:08.950Z,23.32
2023-05-24T10:58:09.008Z,23.31
2023-05-24T10:59:09.085Z,23.30
2023-05-24T11:00:09.256Z,23.29
2023-05-24T11:01:09.232Z,23.29
2023-05-24T11:02:09.469Z,23.28
2023-05-24T11:03:09.625Z,23.28
2023-05-24T11:04:09.416Z,23.29
2023-05-24T11:05:09.533Z,23.28
2023-05-24T11:06:09.570Z,23.28
2023-05-24T11:07:09.680Z,23.28
2023-05-24T11:08:09.786Z,23.28
2023-05-24T11:09:09.767Z,23.28
2023-05-24T11:10:09.857Z,23.28
2023-05-24T11:11:23.410Z,23.29
2023-05-24T11:12:10.919Z,23.30
2023-05-24T11:13:09.964Z,23.30
2023-05-24T11:14:09.998Z,23.31
2023-05-24T11:15:09.981Z,23.31
2023-05-24T11:16:10.041Z,23.31
2023-05-24T11:17:10.052Z,23.30
2023-05-24T11:18:10.102Z,23.28
2023-05-24T11:19:10.064Z,23.27
2023-05-24T11:20:10.240Z,23.25
2023-05-24T11:21:10.112Z,23.25
2023-05-24T11:22:10.180Z,23.24
2023-05-24T11:23:10.217Z,23.23
2023-05-24T11:24:10.326Z,23.23
2023-05-24T11:25:10.364Z,23.23
2023-05-24T11:26:10.428Z,23.22
2023-05-24T11:27:10.506Z,23.21
2023-05-24T11:28:10.623Z,23.22
2023-05-24T11:29:10.655Z,23.21
2023-05-24T11:30:10.789Z,23.21
2023-05-24T11:31:10.824Z,23.22
2023-05-24T11:32:11.134Z,23.22
2023-05-24T11:33:10.980Z,23.22
2023-05-24T11:34:11.018Z,23.22
2023-05-24T11:35:11.101Z,23.23
2023-05-24T11:36:11.169Z,23.24
2023-05-24T11:37:11.242Z,23.25
2023-05-24T11:38:11.248Z,23.24
2023-05-24T11:39:11.279Z,23.25
2023-05-24T11:40:11.311Z,23.26
2023-05-24T11:41:11.297Z,23.27
2023-05-24T11:42:11.377Z,23.27
2023-05-24T11:43:11.346Z,23.27
2023-05-24T11:44:11.360Z,23.28
2023-05-24T11:45:11.360Z,23.27
2023-05-24T11:46:11.414Z,23.28
2023-05-24T11:47:11.415Z,23.28
2023-05-24T11:48:11.483Z,23.28
2023-05-24T11:49:11.440Z,23.27
2023-05-24T11:50:11.453Z,23.27
2023-05-24T11:51:11.472Z,23.27
2023-05-24T11:52:11.508Z,23.27
2023-05-24T11:53:11.516Z,23.27
2023-05-24T11:54:11.523Z,23.27
2023-05-24T11:55:12.203Z,23.27
2023-05-24T11:56:11.589Z,23.25
2023-05-24T11:57:11.610Z,23.25
2023-05-24T11:58:11.608Z,23.25
2023-05-24T11:59:11.690Z,23.25
2023-05-24T12:00:11.664Z,23.25
2023-05-24T12:01:11.701Z,23.27
2023-05-24T12:02:11.773Z,23.27
2023-05-24T12:03:11.938Z,23.28
2023-05-24T12:04:12.064Z,23.28
2023-05-24T12:05:11.796Z,23.29
2023-05-24T12:06:11.840Z,23.28
2023-05-24T12:07:11.918Z,23.29
2023-05-24T12:08:12.683Z,23.29
2023-05-24T12:09:12.033Z,23.29
2023-05-24T12:10:12.113Z,23.28
2023-05-24T12:11:12.185Z,23.27
2023-05-24T12:12:12.297Z,23.28
2023-05-24T12:13:12.325Z,23.29
2023-05-24T12:14:12.399Z,23.29
2023-05-24T12:15:12.414Z,23.28
2023-05-24T12:16:12.485Z,23.28
2023-05-24T12:17:12.492Z,23.28
2023-05-24T12:18:12.542Z,23.29
2023-05-24T12:19:23.940Z,23.29
2023-05-24T12:20:13.583Z,23.29
2023-05-24T12:21:12.555Z,23.30
2023-05-24T12:22:12.559Z,23.30
2023-05-24T12:23:12.562Z,23.30
2023-05-24T12:24:12.564Z,23.30
2023-05-24T12:25:12.639Z,23.30
2023-05-24T12:26:12.610Z,23.31
2023-05-24T12:27:12.633Z,23.31
2023-05-24T12:28:12.674Z,23.31
2023-05-24T12:29:12.666Z,23.32
2023-05-24T12:30:12.760Z,23.31
2023-05-24T12:31:12.749Z,23.32
2023-05-24T12:32:14.051Z,23.32
2023-05-24T12:33:12.745Z,23.31
2023-05-24T12:34:12.777Z,23.32
2023-05-24T12:35:12.813Z,23.33
2023-05-24T12:36:12.913Z,23.34
2023-05-24T12:37:13.795Z,23.34
2023-05-24T12:38:12.994Z,23.34
2023-05-24T12:39:13.009Z,23.32
2023-05-24T12:40:12.990Z,23.30
2023-05-24T12:42:32.073Z,23.24
2023-05-24T12:43:32.051Z,23.24
2023-05-24T12:44:32.050Z,23.22
2023-05-24T12:45:32.097Z,23.19
2023-05-24T12:46:32.173Z,23.16
2023-05-24T12:47:32.188Z,23.12
2023-05-24T12:48:32.145Z,23.09
2023-05-24T12:49:32.155Z,23.07
2023-05-24T12:50:32.152Z,23.05
2023-05-24T12:51:32.122Z,23.00
2023-05-24T12:52:32.165Z,22.97
2023-05-24T12:53:32.146Z,22.95
2023-05-24T12:54:32.130Z,22.94